Time;durP1;ratioP1;P1;durP2;ratioP2;P2;SDS_P1;SDS_P2;PMS_P1;PMS_P2;Temp;Humidity;BMP_temperature;BMP_pressure;BME280_temperature;BME280_humidity;BME280_pressure;Samples;Min_cycle;Max_cycle;Signal;HPM_P1;HPM_P2
2022/08/29 00:01:09;;;;;;;5.37;3.10;;;;;;;12.77;74.35;100836.72;5067802;28;20830;-60
2022/08/29 00:03:36;;;;;;;4.40;3.20;;;;;;;12.76;74.47;100832.34;5070116;28;20518;-60
2022/08/29 00:06:04;;;;;;;10.03;4.60;;;;;;;12.71;74.45;100827.38;5074549;28;20507;-60
2022/08/29 00:08:31;;;;;;;9.83;3.33;;;;;;;12.67;74.28;100833.16;5070641;28;20922;-60
2022/08/29 00:10:58;;;;;;;5.27;3.73;;;;;;;12.53;75.26;100826.38;5060488;28;20496;-60
2022/08/29 00:13:25;;;;;;;7.93;3.60;;;;;;;12.58;75.46;100837.53;5071609;28;20448;-60
2022/08/29 00:15:51;;;;;;;4.70;2.80;;;;;;;12.70;75.25;100832.88;5067292;28;20473;-61
2022/08/29 00:18:20;;;;;;;4.93;3.17;;;;;;;12.68;75.35;100835.72;5067660;28;20473;-61
2022/08/29 00:20:47;;;;;;;6.00;3.07;;;;;;;12.66;75.26;100826.97;5079431;28;20472;-62
2022/08/29 00:23:13;;;;;;;7.33;3.03;;;;;;;12.66;74.92;100840.38;5076633;28;20444;-61
2022/08/29 00:25:40;;;;;;;6.33;3.53;;;;;;;12.63;75.44;100827.22;5061332;28;20476;-61
2022/08/29 00:28:07;;;;;;;6.00;2.73;;;;;;;12.59;75.42;100836.56;5065092;28;20485;-61
2022/08/29 00:30:34;;;;;;;5.50;3.00;;;;;;;12.58;75.51;100833.00;5073801;28;20496;-61
2022/08/29 00:33:01;;;;;;;5.43;3.03;;;;;;;12.56;75.38;100834.97;5062495;28;20503;-61
2022/08/29 00:35:31;;;;;;;9.80;3.53;;;;;;;12.55;75.58;100827.94;5068652;28;20471;-61
2022/08/29 00:37:59;;;;;;;9.23;3.40;;;;;;;12.46;75.50;100830.59;5079652;28;20443;-62
2022/08/29 00:40:30;;;;;;;4.33;2.77;;;;;;;12.43;75.84;100835.25;5064909;28;20452;-61
2022/08/29 00:42:56;;;;;;;8.43;3.57;;;;;;;12.40;75.88;100827.47;5080027;28;20444;-61
2022/08/29 00:45:23;;;;;;;10.90;3.07;;;;;;;12.36;76.30;100834.13;5078687;28;20448;-61
2022/08/29 00:47:54;;;;;;;6.03;3.50;;;;;;;12.32;76.80;100838.03;5060728;28;20564;-62
2022/08/29 00:50:25;;;;;;;5.67;2.70;;;;;;;12.23;77.04;100831.69;5070591;28;20433;-63
2022/08/29 00:52:56;;;;;;;6.00;3.10;;;;;;;12.15;77.25;100841.38;5079182;28;20444;-62
2022/08/29 00:55:24;;;;;;;4.90;3.50;;;;;;;12.17;77.41;100842.09;5066322;28;21039;-61
2022/08/29 00:57:55;;;;;;;7.17;3.57;;;;;;;12.15;77.21;100838.69;5075536;28;20469;-62
2022/08/29 01:00:22;;;;;;;5.10;2.93;;;;;;;12.13;77.51;100836.16;5061659;28;20445;-61
2022/08/29 01:02:50;;;;;;;4.70;2.60;;;;;;;12.15;77.46;100836.03;5061286;28;20490;-61
2022/08/29 01:05:18;;;;;;;7.00;3.33;;;;;;;12.10;77.41;100841.81;5079906;28;20472;-62
2022/08/29 01:07:45;;;;;;;7.43;3.20;;;;;;;12.06;77.50;100840.38;5077113;28;20440;-62
2022/08/29 01:12:14;;;;;;;4.00;2.80;;;;;;;12.09;77.62;100847.31;5064271;28;20425;-62
2022/08/29 01:13:00;;;;;;;8.60;2.80;;;;;;;12.02;77.52;100842.47;5064532;28;20476;-63
2022/08/29 01:15:29;;;;;;;6.47;3.50;;;;;;;11.96;77.43;100845.72;5065619;28;20483;-63
2022/08/29 01:17:57;;;;;;;3.80;2.70;;;;;;;11.87;78.01;100838.44;5071909;28;21196;-63
2022/08/29 01:20:30;;;;;;;6.83;3.20;;;;;;;11.86;78.22;100850.16;5084174;28;20432;-63
2022/08/29 01:23:02;;;;;;;9.97;3.60;;;;;;;11.76;78.38;100860.81;5082683;28;20444;-62
2022/08/29 01:25:33;;;;;;;6.90;3.50;;;;;;;11.69;78.63;100863.16;5063718;28;20480;-61
2022/08/29 01:28:04;;;;;;;7.00;4.23;;;;;;;11.64;79.35;100862.72;5076829;28;20491;-62
2022/08/29 01:30:30;;;;;;;8.33;3.90;;;;;;;11.57;79.37;100864.22;5067111;28;20471;-62
2022/08/29 01:32:59;;;;;;;6.50;3.77;;;;;;;11.57;79.49;100861.53;5085003;28;20501;-62
2022/08/29 01:35:27;;;;;;;6.73;3.83;;;;;;;11.55;79.58;100865.34;5081530;28;22385;-62
2022/08/29 01:37:53;;;;;;;8.83;3.73;;;;;;;11.59;79.49;100859.56;5069126;28;20942;-62
2022/08/29 01:40:20;;;;;;;7.23;3.57;;;;;;;11.61;79.69;100867.47;5073230;28;20811;-61
2022/08/29 01:42:48;;;;;;;7.90;3.90;;;;;;;11.58;79.89;100865.06;5064594;28;20449;-61
2022/08/29 01:45:15;;;;;;;8.10;3.57;;;;;;;11.57;79.57;100866.91;5076898;28;20442;-62
2022/08/29 01:47:42;;;;;;;7.60;3.23;;;;;;;11.59;79.39;100859.56;5082625;28;20547;-61
2022/08/29 01:50:11;;;;;;;5.87;3.60;;;;;;;11.59;79.37;100862.25;5083279;28;20436;-61
2022/08/29 01:52:38;;;;;;;4.90;2.80;;;;;;;11.57;79.51;100868.75;5083661;28;20440;-61
2022/08/29 01:55:05;;;;;;;5.87;3.33;;;;;;;11.55;78.96;100868.88;5082578;28;20491;-61
2022/08/29 01:57:32;;;;;;;4.80;3.30;;;;;;;11.54;78.80;100867.16;5070458;28;20499;-61
2022/08/29 02:00:01;;;;;;;9.37;3.47;;;;;;;11.55;78.93;100868.03;5082781;28;20468;-61
2022/08/29 02:02:29;;;;;;;6.17;3.90;;;;;;;11.55;79.14;100857.31;5082640;28;20484;-60
2022/08/29 02:04:57;;;;;;;5.70;3.20;;;;;;;11.48;79.27;100863.19;5083835;28;20432;-61
2022/08/29 02:07:25;;;;;;;7.10;3.23;;;;;;;11.48;78.83;100862.34;5081767;28;20479;-61
2022/08/29 02:09:52;;;;;;;6.20;3.47;;;;;;;11.49;78.82;100870.25;5083029;28;20479;-60
2022/08/29 02:12:20;;;;;;;7.13;3.30;;;;;;;11.47;79.19;100871.34;5082239;28;20476;-60
2022/08/29 02:14:49;;;;;;;6.00;3.27;;;;;;;11.42;79.32;100869.09;5082003;28;20832;-62
2022/08/29 02:17:18;;;;;;;6.60;3.60;;;;;;;11.37;79.56;100865.06;5081876;28;20479;-62
2022/08/29 02:19:45;;;;;;;6.70;3.30;;;;;;;11.34;79.56;100865.38;5083537;28;20428;-60
2022/08/29 02:22:12;;;;;;;5.47;4.20;;;;;;;11.26;79.85;100857.97;5082350;28;20529;-60
2022/08/29 02:24:39;;;;;;;9.00;3.40;;;;;;;11.23;80.38;100856.41;5083043;28;20444;-61
2022/08/29 02:27:05;;;;;;;5.57;3.40;;;;;;;11.18;80.36;100866.66;5065732;28;20473;-61
2022/08/29 02:29:33;;;;;;;6.13;3.87;;;;;;;11.10;80.43;100867.28;5070865;28;20478;-61
2022/08/29 02:32:00;;;;;;;6.40;3.80;;;;;;;11.01;80.39;100865.38;5082526;28;20475;-60
2022/08/29 02:34:29;;;;;;;5.87;4.47;;;;;;;10.99;80.73;100866.47;5064113;28;20444;-60
2022/08/29 02:36:58;;;;;;;5.23;3.50;;;;;;;10.95;80.54;100870.41;5079644;28;20481;-62
2022/08/29 02:39:25;;;;;;;7.20;4.37;;;;;;;10.86;81.13;100872.00;5074970;28;20536;-61
2022/08/29 02:41:51;;;;;;;3.90;3.17;;;;;;;10.84;81.61;100865.94;5062143;28;20612;-60
2022/08/29 02:44:19;;;;;;;7.80;3.47;;;;;;;10.87;82.06;100863.88;5069380;28;20471;-60
2022/08/29 02:46:46;;;;;;;4.27;3.20;;;;;;;10.92;82.11;100867.00;5063776;28;20476;-60
2022/08/29 02:49:12;;;;;;;5.87;4.00;;;;;;;10.95;81.69;100865.88;5069747;28;20512;-61
2022/08/29 02:51:40;;;;;;;7.13;3.80;;;;;;;11.00;81.28;100870.88;5063098;28;20496;-61
2022/08/29 02:54:07;;;;;;;7.90;3.73;;;;;;;11.01;81.61;100869.91;5062148;28;20452;-61
2022/08/29 02:56:34;;;;;;;5.63;3.60;;;;;;;11.00;81.46;100865.50;5073751;28;20479;-61
2022/08/29 02:59:00;;;;;;;8.10;3.53;;;;;;;11.05;81.50;100865.97;5082023;28;20436;-61
2022/08/29 03:01:29;;;;;;;6.17;3.70;;;;;;;11.06;81.23;100868.53;5080090;28;20518;-61
2022/08/29 03:03:56;;;;;;;6.97;3.30;;;;;;;11.07;81.08;100848.81;5074980;28;20440;-61
2022/08/29 03:06:23;;;;;;;9.33;4.63;;;;;;;11.08;80.91;100855.88;5079726;28;20475;-61
2022/08/29 03:08:51;;;;;;;10.43;4.10;;;;;;;11.09;81.01;100859.38;5067445;28;20861;-61
2022/08/29 03:11:18;;;;;;;5.33;3.63;;;;;;;11.07;81.11;100848.81;5061531;28;20464;-61
2022/08/29 03:13:45;;;;;;;4.97;3.77;;;;;;;11.07;81.35;100853.31;5064314;28;20925;-61
2022/08/29 03:16:13;;;;;;;7.70;3.10;;;;;;;11.07;81.05;100853.31;5072464;28;20480;-61
2022/08/29 03:18:39;;;;;;;5.77;4.30;;;;;;;11.06;80.85;100849.81;5065590;28;20442;-62
2022/08/29 03:21:14;;;;;;;9.47;3.50;;;;;;;11.06;80.75;100846.28;5065383;28;20475;-62
2022/08/29 03:23:41;;;;;;;6.43;3.63;;;;;;;11.10;80.58;100853.91;5080948;28;20455;-62
2022/08/29 03:26:09;;;;;;;5.70;3.60;;;;;;;11.10;80.76;100851.22;5079713;28;20480;-62
2022/08/29 03:28:35;;;;;;;4.40;3.33;;;;;;;11.12;80.85;100851.94;5063124;28;20480;-61
2022/08/29 03:31:02;;;;;;;5.70;3.53;;;;;;;11.16;80.78;100852.53;5062226;28;20511;-62
2022/08/29 03:33:29;;;;;;;7.30;3.80;;;;;;;11.12;80.71;100859.13;5065517;28;20445;-62
2022/08/29 03:35:56;;;;;;;4.67;3.10;;;;;;;11.11;80.66;100855.63;5071494;28;20927;-62
2022/08/29 03:38:22;;;;;;;6.40;3.50;;;;;;;11.08;80.78;100855.88;5075205;28;20936;-62
2022/08/29 03:40:49;;;;;;;8.03;5.00;;;;;;;11.06;81.12;100859.66;5073871;28;20510;-62
2022/08/29 03:43:20;;;;;;;4.90;4.37;;;;;;;11.11;81.37;100865.47;5079706;28;20448;-62
2022/08/29 03:45:47;;;;;;;5.70;3.37;;;;;;;11.11;81.51;100860.13;5080593;28;20478;-61
2022/08/29 03:48:14;;;;;;;6.47;3.97;;;;;;;11.15;81.72;100860.72;5080394;28;20440;-62
2022/08/29 03:50:40;;;;;;;6.03;3.80;;;;;;;11.15;81.38;100866.91;5079666;28;20472;-62
2022/08/29 03:53:07;;;;;;;5.93;3.57;;;;;;;11.03;81.23;100857.25;5079050;28;20440;-61
2022/08/29 03:55:33;;;;;;;6.40;3.83;;;;;;;10.99;81.05;100858.44;5078046;28;20501;-62
2022/08/29 03:58:00;;;;;;;6.33;4.00;;;;;;;11.06;80.53;100867.69;5065056;28;20530;-62
2022/08/29 04:00:28;;;;;;;4.80;3.10;;;;;;;11.11;80.29;100860.13;5078884;28;20467;-62
2022/08/29 04:02:57;;;;;;;5.80;3.80;;;;;;;11.29;80.00;100860.38;5073907;28;20489;-62
2022/08/29 04:05:23;;;;;;;6.20;3.40;;;;;;;11.11;80.65;100860.97;5071591;28;20556;-62
2022/08/29 04:07:52;;;;;;;8.00;4.00;;;;;;;11.08;80.90;100871.09;5081803;28;20436;-63
2022/08/29 04:10:21;;;;;;;6.23;3.27;;;;;;;11.06;81.05;100876.56;5067996;28;21002;-62
2022/08/29 04:12:47;;;;;;;9.30;3.70;;;;;;;11.10;81.14;100874.47;5060964;28;20448;-62
2022/08/29 04:15:14;;;;;;;5.27;3.47;;;;;;;11.24;80.52;100870.63;5060934;28;20902;-62
2022/08/29 04:17:43;;;;;;;7.77;3.50;;;;;;;11.02;81.11;100880.44;5060497;28;20465;-62
2022/08/29 04:20:11;;;;;;;6.60;3.20;;;;;;;10.97;81.77;100879.13;5075552;28;20534;-62
2022/08/29 04:22:39;;;;;;;7.73;4.20;;;;;;;10.81;82.06;100880.41;5066224;28;20452;-62
2022/08/29 04:25:07;;;;;;;6.27;3.20;;;;;;;10.74;83.17;100874.75;5067692;28;20433;-61
2022/08/29 04:27:36;;;;;;;5.23;3.67;;;;;;;10.82;83.12;100873.25;5064980;28;20456;-62
2022/08/29 04:30:05;;;;;;;7.93;3.87;;;;;;;10.93;82.95;100873.19;5080525;28;20555;-62
2022/08/29 04:32:32;;;;;;;7.00;3.77;;;;;;;11.02;82.60;100875.09;5081005;28;20474;-62
2022/08/29 04:35:00;;;;;;;7.30;4.10;;;;;;;11.05;82.32;100874.84;5064298;28;20475;-62
2022/08/29 04:37:27;;;;;;;5.93;4.17;;;;;;;11.10;81.98;100869.97;5059928;28;20516;-66
2022/08/29 04:39:54;;;;;;;5.50;4.17;;;;;;;11.17;81.75;100874.81;5076852;28;20436;-66
2022/08/29 04:42:21;;;;;;;5.20;3.20;;;;;;;11.21;81.38;100881.59;5082724;28;21186;-66
2022/08/29 04:44:48;;;;;;;3.63;3.13;;;;;;;11.26;81.37;100877.53;5067627;28;20432;-66
2022/08/29 04:47:15;;;;;;;6.30;4.03;;;;;;;11.31;81.22;100883.34;5064120;28;20484;-66
2022/08/29 04:49:42;;;;;;;8.27;4.30;;;;;;;11.40;80.80;100880.88;5085074;28;20500;-66
2022/08/29 04:52:12;;;;;;;6.10;3.80;;;;;;;11.49;80.50;100883.63;5083094;28;20546;-66
2022/08/29 04:54:40;;;;;;;5.20;3.93;;;;;;;11.59;80.24;100891.72;5064095;28;20449;-66
2022/08/29 04:57:07;;;;;;;5.37;3.77;;;;;;;11.68;79.71;100885.59;5071911;28;20521;-66
2022/08/29 04:59:34;;;;;;;4.70;3.87;;;;;;;11.73;79.45;100887.00;5079879;28;21002;-66
2022/08/29 05:02:01;;;;;;;5.13;3.40;;;;;;;11.76;78.69;100879.56;5083109;28;20601;-66
2022/08/29 05:04:28;;;;;;;7.03;4.20;;;;;;;11.81;78.66;100884.53;5077829;28;20482;-67
2022/08/29 05:06:54;;;;;;;7.83;3.80;;;;;;;11.76;78.59;100887.59;5066429;28;20504;-66
2022/08/29 05:09:22;;;;;;;5.70;3.90;;;;;;;11.73;78.76;100893.22;5076634;28;20480;-63
2022/08/29 05:11:49;;;;;;;5.47;4.10;;;;;;;11.73;78.81;100893.22;5071519;28;20546;-67
2022/08/29 05:14:17;;;;;;;7.40;5.03;;;;;;;11.60;78.46;100889.91;5072308;28;20474;-69
2022/08/29 05:16:44;;;;;;;5.10;4.13;;;;;;;11.62;78.44;100888.78;5066814;28;20518;-68
2022/08/29 05:19:11;;;;;;;8.37;4.37;;;;;;;11.63;78.24;100893.16;5065857;28;20897;-67
2022/08/29 05:21:39;;;;;;;5.57;3.83;;;;;;;11.65;78.43;100906.44;5070267;28;21175;-67
2022/08/29 05:24:07;;;;;;;6.87;4.20;;;;;;;11.70;78.99;100893.50;5083292;28;20472;-67
2022/08/29 05:26:37;;;;;;;8.00;3.47;;;;;;;11.77;78.64;100899.16;5079814;28;20479;-67
2022/08/29 05:29:03;;;;;;;7.70;3.73;;;;;;;11.90;78.29;100901.63;5082161;28;20448;-68
2022/08/29 05:31:30;;;;;;;10.27;4.17;;;;;;;11.90;78.12;100909.66;5083335;28;20506;-67
2022/08/29 05:33:57;;;;;;;6.83;3.90;;;;;;;11.87;78.19;100908.09;5083822;28;20432;-68
2022/08/29 05:36:24;;;;;;;6.90;4.30;;;;;;;11.81;78.01;100908.63;5082123;28;20557;-67
2022/08/29 05:38:51;;;;;;;5.40;3.93;;;;;;;11.82;78.09;100918.34;5083789;28;20469;-67
2022/08/29 05:41:18;;;;;;;4.60;3.63;;;;;;;12.19;77.15;100920.56;5082914;28;20501;-66
2022/08/29 05:43:46;;;;;;;5.20;4.00;;;;;;;12.49;76.41;100913.47;5082503;28;20494;-66
2022/08/29 05:46:13;;;;;;;6.47;4.70;;;;;;;12.55;75.98;100915.59;5082611;28;20464;-67
2022/08/29 05:48:40;;;;;;;5.07;3.90;;;;;;;12.37;76.88;100916.25;5082971;28;20455;-67
2022/08/29 05:51:08;;;;;;;5.23;4.03;;;;;;;12.33;77.74;100919.34;5082266;28;20542;-66
2022/08/29 05:53:34;;;;;;;5.53;4.50;;;;;;;12.55;78.01;100905.72;5083380;28;21104;-66
2022/08/29 05:56:01;;;;;;;7.33;4.43;;;;;;;12.82;76.55;100914.94;5081969;28;20499;-66
2022/08/29 05:58:28;;;;;;;8.50;4.93;;;;;;;13.10;75.40;100915.97;5081486;28;20476;-67
2022/08/29 06:00:56;;;;;;;6.70;4.90;;;;;;;13.40;74.79;100913.31;5082690;28;20481;-68
2022/08/29 06:03:23;;;;;;;10.37;4.47;;;;;;;13.62;73.19;100922.91;5072625;28;20528;-67
2022/08/29 06:05:51;;;;;;;10.13;4.70;;;;;;;15.01;69.21;100907.72;5068548;28;20483;-66
2022/08/29 06:08:18;;;;;;;5.80;3.83;;;;;;;15.55;66.56;100913.06;5064728;28;20433;-68
2022/08/29 06:10:45;;;;;;;8.67;3.90;;;;;;;17.44;59.83;100909.25;5081859;28;20537;-67
2022/08/29 06:13:12;;;;;;;8.20;4.10;;;;;;;17.22;58.37;100916.19;5081795;28;20451;-67
2022/08/29 06:15:38;;;;;;;5.07;3.80;;;;;;;16.60;60.67;100904.91;5081687;28;20475;-67
2022/08/29 06:18:07;;;;;;;6.70;4.17;;;;;;;16.06;62.28;100907.84;5081870;28;20459;-67
2022/08/29 06:20:33;;;;;;;10.80;4.27;;;;;;;16.52;61.70;100903.00;5076228;28;20495;-66
2022/08/29 06:23:00;;;;;;;17.43;4.77;;;;;;;16.47;61.07;100897.25;5081860;28;20580;-69
2022/08/29 06:25:27;;;;;;;7.57;4.43;;;;;;;16.34;62.07;100900.41;5082333;28;20472;-69
2022/08/29 06:27:54;;;;;;;7.70;3.80;;;;;;;17.50;58.35;100905.88;5078573;28;20487;-68
2022/08/29 06:30:21;;;;;;;9.57;3.43;;;;;;;18.54;55.28;100902.41;5061388;28;20548;-69
2022/08/29 06:32:47;;;;;;;4.77;3.70;;;;;;;19.69;52.53;100907.03;5061279;28;20501;-70
2022/08/29 06:35:15;;;;;;;9.83;3.77;;;;;;;19.53;52.62;100903.44;5060418;28;20457;-71
2022/08/29 06:37:43;;;;;;;5.33;3.40;;;;;;;19.46;51.60;100907.91;5070692;28;20490;-71
2022/08/29 06:40:10;;;;;;;5.60;3.67;;;;;;;18.56;54.23;100901.22;5061762;28;20439;-70
2022/08/29 06:42:37;;;;;;;8.00;3.97;;;;;;;18.04;56.13;100902.59;5068575;28;20932;-69
2022/08/29 06:45:04;;;;;;;7.50;3.33;;;;;;;17.63;57.97;100899.94;5081570;28;21003;-71
2022/08/29 06:47:31;;;;;;;12.30;3.60;;;;;;;17.99;57.26;100902.28;5081426;28;20491;-71
2022/08/29 06:49:58;;;;;;;9.43;3.93;;;;;;;18.61;56.29;100904.25;5080875;28;20472;-68
2022/08/29 06:52:27;;;;;;;9.20;3.87;;;;;;;18.61;56.19;100898.00;5074953;28;21036;-69
2022/08/29 06:54:54;;;;;;;5.50;3.40;;;;;;;18.73;56.78;100896.56;5061629;28;20865;-71
2022/08/29 06:57:20;;;;;;;10.33;3.43;;;;;;;18.41;57.05;100902.97;5060177;28;20476;-72
2022/08/29 06:59:47;;;;;;;7.00;3.10;;;;;;;18.29;57.69;100907.09;5061846;28;20445;-70
2022/08/29 07:02:14;;;;;;;5.50;3.20;;;;;;;18.79;56.26;100900.41;5060317;28;20476;-69
2022/08/29 07:04:40;;;;;;;6.20;3.30;;;;;;;18.65;56.05;100902.00;5062163;28;20448;-71
2022/08/29 07:07:07;;;;;;;5.87;3.23;;;;;;;18.60;57.51;100894.41;5080615;28;20503;-70
2022/08/29 07:09:35;;;;;;;5.77;2.93;;;;;;;18.94;56.25;100908.63;5071657;28;20477;-68
2022/08/29 07:12:02;;;;;;;7.10;3.03;;;;;;;19.46;54.68;100901.63;5059416;28;20511;-70
2022/08/29 07:14:29;;;;;;;5.93;3.20;;;;;;;19.49;54.61;100895.84;5061243;28;20483;-70
2022/08/29 07:16:56;;;;;;;5.40;2.90;;;;;;;19.62;53.85;100897.97;5075489;28;20502;-70
2022/08/29 07:19:23;;;;;;;7.17;3.43;;;;;;;19.99;52.75;100904.38;5080529;28;20470;-69
2022/08/29 07:21:52;;;;;;;3.23;2.43;;;;;;;20.12;53.15;100904.59;5080759;28;20535;-65
2022/08/29 07:24:18;;;;;;;7.20;3.00;;;;;;;19.29;53.72;100901.78;5081413;28;20607;-70
2022/08/29 07:26:47;;;;;;;5.63;3.10;;;;;;;18.99;55.35;100906.22;5079865;28;20506;-70
2022/08/29 07:29:16;;;;;;;6.03;2.77;;;;;;;18.92;56.60;100924.22;5068325;28;20494;-70
2022/08/29 07:31:43;;;;;;;5.60;3.00;;;;;;;19.79;54.60;100915.78;5074092;28;20475;-68
2022/08/29 07:34:10;;;;;;;4.60;3.07;;;;;;;20.21;52.32;100921.63;5080380;28;20898;-70
2022/08/29 07:36:37;;;;;;;5.50;3.37;;;;;;;22.52;47.14;100934.06;5067444;28;20503;-69
2022/08/29 07:39:06;;;;;;;7.30;2.90;;;;;;;22.69;46.03;100928.25;5061550;28;20456;-69
2022/08/29 07:41:33;;;;;;;4.87;3.13;;;;;;;21.08;49.08;100926.25;5059709;28;21131;-70
2022/08/29 07:44:01;;;;;;;7.20;4.00;;;;;;;22.74;46.62;100937.53;5074152;28;20448;-69
2022/08/29 07:46:27;;;;;;;5.73;2.67;;;;;;;24.92;41.62;100925.00;5062619;28;21060;-71
2022/08/29 07:48:54;;;;;;;5.33;3.10;;;;;;;24.58;41.30;100929.81;5060012;28;20511;-69
2022/08/29 07:51:22;;;;;;;7.70;3.70;;;;;;;23.59;44.25;100928.03;5070237;28;20487;-71
2022/08/29 07:53:50;;;;;;;5.57;2.97;;;;;;;24.39;42.85;100928.78;5080812;28;20429;-70
2022/08/29 07:56:18;;;;;;;6.40;2.90;;;;;;;24.67;42.31;100926.81;5078533;28;20858;-70
2022/08/29 07:58:45;;;;;;;4.20;2.30;;;;;;;24.70;41.57;100923.63;5080658;28;20452;-70
2022/08/29 08:01:13;;;;;;;7.93;3.40;;;;;;;23.70;43.34;100927.44;5099008;28;20490;-70
2022/08/29 08:03:41;;;;;;;9.90;3.17;;;;;;;24.47;42.96;100922.22;5101193;28;20966;-69
2022/08/29 08:06:08;;;;;;;4.83;3.13;;;;;;;25.88;40.29;100928.53;5098249;28;20930;-70
2022/08/29 08:08:35;;;;;;;10.43;3.40;;;;;;;25.63;40.23;100935.91;5101775;28;20451;-70
2022/08/29 08:11:03;;;;;;;9.63;3.33;;;;;;;24.95;41.43;100927.28;5100018;28;20483;-72
2022/08/29 08:13:30;;;;;;;7.17;2.80;;;;;;;24.37;42.62;100928.19;5098849;28;20452;-70
2022/08/29 08:15:57;;;;;;;7.80;2.90;;;;;;;24.32;42.83;100933.44;5100826;28;20523;-71
2022/08/29 08:18:28;;;;;;;7.60;2.80;;;;;;;24.46;42.84;100936.09;5096943;28;20448;-71
2022/08/29 08:20:55;;;;;;;6.97;2.77;;;;;;;23.68;44.99;100935.81;5080420;28;20469;-72
2022/08/29 08:23:21;;;;;;;4.50;2.50;;;;;;;25.08;42.05;100936.47;5080904;28;20910;-71
2022/08/29 08:25:48;;;;;;;6.67;2.47;;;;;;;25.58;41.34;100936.56;5079908;28;20505;-72
2022/08/29 08:28:16;;;;;;;7.40;2.43;;;;;;;24.32;43.60;100944.38;5094470;28;20487;-72
2022/08/29 08:30:42;;;;;;;5.50;2.40;;;;;;;23.21;46.07;100945.88;5080165;28;20480;-70
2022/08/29 08:33:09;;;;;;;6.53;2.10;;;;;;;23.79;45.12;100941.69;5080593;28;20436;-71
2022/08/29 08:35:39;;;;;;;4.90;2.83;;;;;;;23.80;45.47;100946.09;5079741;28;20492;-72
2022/08/29 08:38:07;;;;;;;5.30;1.70;;;;;;;25.64;41.50;100941.16;5080678;28;20457;-71
2022/08/29 08:40:35;;;;;;;5.17;2.03;;;;;;;26.77;38.61;100939.16;5079492;28;20542;-71
2022/08/29 08:43:02;;;;;;;4.47;2.40;;;;;;;26.20;39.06;100949.53;5085085;28;20521;-71
2022/08/29 08:45:34;;;;;;;4.67;2.40;;;;;;;26.55;40.09;100944.25;5100196;28;20476;-72
2022/08/29 08:48:06;;;;;;;4.77;2.43;;;;;;;26.15;39.15;100936.50;5099816;28;20467;-71
2022/08/29 08:50:46;;;;;;;6.00;2.87;;;;;;;24.54;42.72;100939.47;5099969;28;20563;-71
2022/08/29 08:53:18;;;;;;;8.93;2.67;;;;;;;24.51;43.32;100937.16;5100512;28;20421;-69
2022/08/29 08:55:46;;;;;;;7.00;2.27;;;;;;;25.04;42.84;100936.09;5098246;28;20519;-69
2022/08/29 08:58:24;;;;;;;7.67;3.00;;;;;;;24.92;42.57;100922.25;5099738;28;20484;-69
2022/08/29 09:00:57;;;;;;;7.77;2.23;;;;;;;24.92;42.72;100935.09;5100038;28;20481;-70
2022/08/29 09:04:04;;;;;;;7.10;2.80;;;;;;;24.33;44.98;100929.63;5099611;28;20437;-69
2022/08/29 09:06:46;;;;;;;6.00;2.60;;;;;;;24.58;43.33;100931.69;5085052;28;20484;-70
2022/08/29 09:09:21;;;;;;;6.37;2.80;;;;;;;26.85;39.32;100943.47;5100040;28;20483;-69
2022/08/29 09:11:55;;;;;;;5.53;2.17;;;;;;;26.95;39.03;100943.75;5099350;28;20490;-68
2022/08/29 09:14:34;;;;;;;5.70;2.20;;;;;;;27.56;37.68;100943.72;5080142;28;20506;-67
2022/08/29 09:17:02;;;;;;;4.27;2.20;;;;;;;27.36;38.30;100928.41;5078447;28;20481;-69
2022/08/29 09:19:29;;;;;;;4.13;2.60;;;;;;;28.77;36.09;100936.84;5084059;28;20489;-67
2022/08/29 09:22:00;;;;;;;8.40;2.63;;;;;;;28.62;35.43;100931.84;5099189;28;20472;-68
2022/08/29 09:24:33;;;;;;;6.63;2.23;;;;;;;25.58;41.05;100943.97;5100684;28;20437;-66
2022/08/29 09:26:59;;;;;;;6.23;2.57;;;;;;;25.42;43.21;100942.63;5094630;28;20477;-67
2022/08/29 09:29:28;;;;;;;6.60;2.57;;;;;;;27.68;37.66;100944.56;5085852;28;20467;-67
2022/08/29 09:32:07;;;;;;;4.77;2.47;;;;;;;26.81;39.30;100945.03;5081877;28;20481;-69
2022/08/29 09:34:36;;;;;;;6.10;2.37;;;;;;;24.59;43.98;100941.56;5083358;28;20414;-67
2022/08/29 09:37:18;;;;;;;7.80;2.90;;;;;;;24.54;44.10;100935.91;5082404;28;20564;-68
2022/08/29 09:39:53;;;;;;;7.33;3.30;;;;;;;24.69;43.20;100933.75;5082200;28;21111;-69
2022/08/29 09:42:23;;;;;;;4.83;2.53;;;;;;;24.50;44.25;100926.44;5081771;28;21471;-67
2022/08/29 09:44:55;;;;;;;5.93;2.33;;;;;;;24.81;44.00;100940.22;5083112;28;20435;-67
2022/08/29 09:47:23;;;;;;;7.10;2.27;;;;;;;24.76;44.60;100928.25;5080662;28;20480;-66
2022/08/29 09:50:12;;;;;;;4.30;2.70;;;;;;;24.66;44.02;100930.63;5083030;28;20429;-67
2022/08/29 09:52:51;;;;;;;7.23;2.73;;;;;;;24.32;45.55;100933.44;5076842;28;20501;-67
2022/08/29 09:55:21;;;;;;;4.60;2.50;;;;;;;25.55;42.30;100937.00;5080641;28;20551;-68
2022/08/29 09:57:53;;;;;;;5.53;2.30;;;;;;;25.43;43.20;100933.31;5082301;28;21032;-68
2022/08/29 10:00:26;;;;;;;6.87;2.50;;;;;;;25.34;43.11;100943.69;5082668;28;20474;-68
2022/08/29 10:02:54;;;;;;;3.50;1.70;;;;;;;24.57;45.06;100946.41;5081889;28;20468;-69
2022/08/29 10:05:34;;;;;;;5.03;2.37;;;;;;;23.80;45.74;100943.34;5082426;28;20454;-68
2022/08/29 10:08:04;;;;;;;4.90;2.90;;;;;;;23.62;47.20;100935.81;5081992;28;20476;-67
2022/08/29 10:10:33;;;;;;;6.30;2.70;;;;;;;23.25;47.39;100940.84;5081991;28;20468;-67
2022/08/29 10:13:05;;;;;;;4.20;2.47;;;;;;;22.47;51.74;100933.84;5094361;28;20459;-67
2022/08/29 10:15:35;;;;;;;5.00;2.67;;;;;;;22.92;50.06;100936.13;5101732;28;20463;-67
2022/08/29 10:18:22;;;;;;;5.40;2.43;;;;;;;22.91;50.11;100939.88;5102428;28;20482;-68
2022/08/29 10:21:06;;;;;;;9.43;2.30;;;;;;;22.54;51.43;100942.06;5099832;28;20493;-67
2022/08/29 10:23:40;;;;;;;4.10;2.50;;;;;;;21.73;53.65;100946.13;5101626;28;21011;-66
2022/08/29 10:26:16;;;;;;;5.70;2.53;;;;;;;21.56;54.14;100947.44;5101675;28;20466;-67
2022/08/29 10:28:48;;;;;;;5.80;2.30;;;;;;;21.48;55.05;100942.97;5093749;28;20481;-67
2022/08/29 10:31:18;;;;;;;5.17;2.37;;;;;;;21.91;54.21;100952.97;5080785;28;20484;-67
2022/08/29 10:33:56;;;;;;;8.80;2.70;;;;;;;22.08;52.83;100945.31;5084727;28;20936;-67
2022/08/29 10:36:29;;;;;;;5.93;2.30;;;;;;;22.07;53.68;100943.66;5087191;28;20479;-68
2022/08/29 10:39:03;;;;;;;4.90;2.63;;;;;;;21.76;54.22;100948.44;5081655;28;20938;-68
2022/08/29 10:41:34;;;;;;;8.20;3.30;;;;;;;22.12;53.44;100941.19;5081071;28;20464;-68
2022/08/29 10:44:16;;;;;;;4.73;2.70;;;;;;;21.97;53.50;100941.28;5081658;28;21278;-68
2022/08/29 10:46:56;;;;;;;4.70;2.27;;;;;;;22.13;53.55;100937.38;5085622;28;20475;-67
2022/08/29 10:49:32;;;;;;;4.50;2.77;;;;;;;22.06;54.11;100948.25;5102547;28;20453;-69
2022/08/29 10:52:04;;;;;;;4.90;2.87;;;;;;;22.27;54.01;100939.22;5101379;28;20483;-68
2022/08/29 10:54:40;;;;;;;10.40;3.30;;;;;;;22.43;53.18;100935.31;5088940;28;20530;-68
2022/08/29 10:57:07;;;;;;;6.87;2.87;;;;;;;22.67;52.81;100938.53;5080770;28;20548;-68
2022/08/29 10:59:44;;;;;;;5.30;2.47;;;;;;;22.73;53.20;100943.19;5081994;28;20458;-68
2022/08/29 11:02:19;;;;;;;4.30;2.50;;;;;;;23.21;51.16;100937.69;5080163;28;20474;-68
2022/08/29 11:04:50;;;;;;;4.10;2.20;;;;;;;22.84;51.97;100953.47;5081938;28;20429;-69
2022/08/29 11:07:20;;;;;;;4.70;2.57;;;;;;;22.81;52.06;100942.16;5079612;28;20499;-70
2022/08/29 11:09:51;;;;;;;6.30;3.10;;;;;;;22.71;52.40;100953.44;5081548;28;20456;-70
2022/08/29 11:12:21;;;;;;;5.90;2.90;;;;;;;23.09;51.63;100940.19;5080581;28;20637;-69
2022/08/29 11:14:53;;;;;;;5.57;2.33;;;;;;;24.74;47.95;100941.31;5079988;28;20428;-69
2022/08/29 11:17:22;;;;;;;5.70;3.13;;;;;;;24.82;46.38;100930.09;5080056;28;20472;-70
2022/08/29 11:19:57;;;;;;;10.27;2.80;;;;;;;25.16;45.32;100938.97;5081903;28;20448;-70
2022/08/29 11:22:26;;;;;;;4.37;2.83;;;;;;;24.98;45.76;100932.34;5079687;28;20472;-70
2022/08/29 11:25:01;;;;;;;8.50;3.07;;;;;;;26.04;43.95;100945.44;5087795;28;20517;-68
2022/08/29 11:27:35;;;;;;;4.10;2.87;;;;;;;25.90;43.87;100942.81;5100130;28;20475;-70
2022/08/29 11:30:04;;;;;;;6.67;3.13;;;;;;;25.51;43.93;100944.84;5080894;28;20437;-71
2022/08/29 11:32:38;;;;;;;5.30;2.67;;;;;;;25.05;44.94;100937.78;5080833;28;21041;-70